sensor_id;sensor_type;location;lat;lon;timestamp;P1;durP1;ratioP1;P2;durP2;ratioP2
9420;SDS011;4749;51.398;5.466;2023-02-27T00:01:11;2.67;;;1.57;;
9420;SDS011;4749;51.398;5.466;2023-02-27T00:03:38;4.60;;;1.60;;
9420;SDS011;4749;51.398;5.466;2023-02-27T00:06:06;5.07;;;1.50;;
9420;SDS011;4749;51.398;5.466;2023-02-27T00:08:34;3.40;;;1.70;;
9420;SDS011;4749;51.398;5.466;2023-02-27T00:11:05;3.40;;;1.53;;
9420;SDS011;4749;51.398;5.466;2023-02-27T00:13:32;4.07;;;1.60;;
9420;SDS011;4749;51.398;5.466;2023-02-27T00:16:01;2.93;;;1.27;;
9420;SDS011;4749;51.398;5.466;2023-02-27T00:18:28;2.77;;;1.27;;
9420;SDS011;4749;51.398;5.466;2023-02-27T00:21:02;3.60;;;1.90;;
9420;SDS011;4749;51.398;5.466;2023-02-27T00:23:30;4.07;;;1.30;;
9420;SDS011;4749;51.398;5.466;2023-02-27T00:26:00;3.97;;;1.40;;
9420;SDS011;4749;51.398;5.466;2023-02-27T00:28:28;5.90;;;1.73;;
9420;SDS011;4749;51.398;5.466;2023-02-27T00:30:55;3.20;;;1.43;;
9420;SDS011;4749;51.398;5.466;2023-02-27T00:33:32;5.93;;;1.37;;
9420;SDS011;4749;51.398;5.466;2023-02-27T00:36:00;3.73;;;1.30;;
9420;SDS011;4749;51.398;5.466;2023-02-27T00:38:30;4.37;;;1.60;;
9420;SDS011;4749;51.398;5.466;2023-02-27T00:41:02;3.47;;;1.43;;
9420;SDS011;4749;51.398;5.466;2023-02-27T00:43:36;3.77;;;1.50;;
9420;SDS011;4749;51.398;5.466;2023-02-27T00:46:49;4.93;;;1.40;;
9420;SDS011;4749;51.398;5.466;2023-02-27T00:49:25;3.03;;;1.40;;
9420;SDS011;4749;51.398;5.466;2023-02-27T00:52:13;3.57;;;1.53;;
9420;SDS011;4749;51.398;5.466;2023-02-27T00:54:50;4.20;;;1.80;;
9420;SDS011;4749;51.398;5.466;2023-02-27T00:57:17;3.57;;;1.50;;
9420;SDS011;4749;51.398;5.466;2023-02-27T00:59:56;3.70;;;1.70;;
9420;SDS011;4749;51.398;5.466;2023-02-27T01:02:38;5.30;;;1.90;;
9420;SDS011;4749;51.398;5.466;2023-02-27T01:05:57;4.87;;;1.70;;
9420;SDS011;4749;51.398;5.466;2023-02-27T01:08:24;5.13;;;2.00;;
9420;SDS011;4749;51.398;5.466;2023-02-27T01:10:59;3.20;;;1.50;;
9420;SDS011;4749;51.398;5.466;2023-02-27T01:13:26;5.90;;;1.67;;
9420;SDS011;4749;51.398;5.466;2023-02-27T01:16:37;3.83;;;1.60;;
9420;SDS011;4749;51.398;5.466;2023-02-27T01:19:31;4.00;;;1.60;;
9420;SDS011;4749;51.398;5.466;2023-02-27T01:22:25;4.50;;;1.70;;
9420;SDS011;4749;51.398;5.466;2023-02-27T01:24:53;5.40;;;1.93;;
9420;SDS011;4749;51.398;5.466;2023-02-27T01:27:21;5.50;;;1.50;;
9420;SDS011;4749;51.398;5.466;2023-02-27T01:29:54;4.30;;;1.40;;
9420;SDS011;4749;51.398;5.466;2023-02-27T01:32:22;5.40;;;1.70;;
9420;SDS011;4749;51.398;5.466;2023-02-27T01:34:59;4.83;;;1.97;;
9420;SDS011;4749;51.398;5.466;2023-02-27T01:37:33;6.87;;;1.50;;
9420;SDS011;4749;51.398;5.466;2023-02-27T01:40:01;3.40;;;1.40;;
9420;SDS011;4749;51.398;5.466;2023-02-27T01:42:32;2.67;;;1.40;;
9420;SDS011;4749;51.398;5.466;2023-02-27T01:45:23;4.60;;;1.33;;
9420;SDS011;4749;51.398;5.466;2023-02-27T01:48:12;4.87;;;2.03;;
9420;SDS011;4749;51.398;5.466;2023-02-27T01:50:52;7.27;;;1.93;;
9420;SDS011;4749;51.398;5.466;2023-02-27T01:53:38;4.37;;;1.77;;
9420;SDS011;4749;51.398;5.466;2023-02-27T01:56:28;4.57;;;2.00;;
9420;SDS011;4749;51.398;5.466;2023-02-27T01:59:37;4.20;;;1.70;;
9420;SDS011;4749;51.398;5.466;2023-02-27T02:02:15;3.47;;;1.60;;
9420;SDS011;4749;51.398;5.466;2023-02-27T02:04:51;4.37;;;1.30;;
9420;SDS011;4749;51.398;5.466;2023-02-27T02:07:22;4.83;;;1.57;;
9420;SDS011;4749;51.398;5.466;2023-02-27T02:09:59;4.40;;;1.57;;
9420;SDS011;4749;51.398;5.466;2023-02-27T02:12:32;3.93;;;1.50;;
9420;SDS011;4749;51.398;5.466;2023-02-27T02:15:14;4.53;;;1.73;;
9420;SDS011;4749;51.398;5.466;2023-02-27T02:18:21;3.47;;;1.40;;
9420;SDS011;4749;51.398;5.466;2023-02-27T02:21:14;3.93;;;1.97;;
9420;SDS011;4749;51.398;5.466;2023-02-27T02:27:03;5.40;;;1.93;;
9420;SDS011;4749;51.398;5.466;2023-02-27T02:39:57;2.50;;;1.50;;
9420;SDS011;4749;51.398;5.466;2023-02-27T02:42:55;5.87;;;2.13;;
9420;SDS011;4749;51.398;5.466;2023-02-27T02:46:12;4.90;;;1.93;;
9420;SDS011;4749;51.398;5.466;2023-02-27T02:49:22;2.33;;;1.60;;
9420;SDS011;4749;51.398;5.466;2023-02-27T03:01:12;3.57;;;1.80;;
9420;SDS011;4749;51.398;5.466;2023-02-27T03:03:48;4.60;;;1.90;;
9420;SDS011;4749;51.398;5.466;2023-02-27T03:06:31;6.57;;;2.20;;
9420;SDS011;4749;51.398;5.466;2023-02-27T03:09:05;5.33;;;1.90;;
9420;SDS011;4749;51.398;5.466;2023-02-27T03:12:01;3.60;;;1.80;;
9420;SDS011;4749;51.398;5.466;2023-02-27T03:14:45;4.90;;;2.10;;
9420;SDS011;4749;51.398;5.466;2023-02-27T03:17:40;5.50;;;2.20;;
9420;SDS011;4749;51.398;5.466;2023-02-27T03:20:23;6.80;;;2.13;;
9420;SDS011;4749;51.398;5.466;2023-02-27T03:23:02;4.17;;;2.00;;
9420;SDS011;4749;51.398;5.466;2023-02-27T03:25:36;5.40;;;2.00;;
9420;SDS011;4749;51.398;5.466;2023-02-27T03:28:09;3.40;;;2.10;;
9420;SDS011;4749;51.398;5.466;2023-02-27T03:33:56;5.43;;;2.10;;
9420;SDS011;4749;51.398;5.466;2023-02-27T03:36:40;3.57;;;1.90;;
9420;SDS011;4749;51.398;5.466;2023-02-27T03:44:49;5.13;;;1.97;;
9420;SDS011;4749;51.398;5.466;2023-02-27T03:47:42;4.33;;;2.00;;
9420;SDS011;4749;51.398;5.466;2023-02-27T03:50:09;3.60;;;1.80;;
9420;SDS011;4749;51.398;5.466;2023-02-27T03:52:41;5.37;;;2.13;;
9420;SDS011;4749;51.398;5.466;2023-02-27T03:55:12;3.20;;;2.00;;
9420;SDS011;4749;51.398;5.466;2023-02-27T03:57:47;7.47;;;2.10;;
9420;SDS011;4749;51.398;5.466;2023-02-27T04:00:18;4.23;;;2.30;;
9420;SDS011;4749;51.398;5.466;2023-02-27T04:02:50;6.73;;;2.60;;
9420;SDS011;4749;51.398;5.466;2023-02-27T04:05:19;3.77;;;2.00;;
9420;SDS011;4749;51.398;5.466;2023-02-27T04:28:15;4.67;;;2.60;;
9420;SDS011;4749;51.398;5.466;2023-02-27T04:31:10;5.27;;;2.30;;
9420;SDS011;4749;51.398;5.466;2023-02-27T04:36:40;4.30;;;1.97;;
9420;SDS011;4749;51.398;5.466;2023-02-27T04:39:28;4.83;;;1.87;;
9420;SDS011;4749;51.398;5.466;2023-02-27T04:42:13;4.10;;;2.30;;
9420;SDS011;4749;51.398;5.466;2023-02-27T04:44:45;4.47;;;2.57;;
9420;SDS011;4749;51.398;5.466;2023-02-27T04:47:15;4.03;;;2.20;;
9420;SDS011;4749;51.398;5.466;2023-02-27T04:49:56;3.83;;;2.07;;
9420;SDS011;4749;51.398;5.466;2023-02-27T04:52:35;4.87;;;2.50;;
9420;SDS011;4749;51.398;5.466;2023-02-27T04:55:42;7.03;;;2.57;;
9420;SDS011;4749;51.398;5.466;2023-02-27T04:58:25;5.37;;;2.57;;
9420;SDS011;4749;51.398;5.466;2023-02-27T05:01:00;5.10;;;2.47;;
9420;SDS011;4749;51.398;5.466;2023-02-27T05:03:37;5.30;;;2.60;;
9420;SDS011;4749;51.398;5.466;2023-02-27T05:06:12;3.30;;;2.00;;
9420;SDS011;4749;51.398;5.466;2023-02-27T05:11:53;6.30;;;2.47;;
9420;SDS011;4749;51.398;5.466;2023-02-27T05:14:31;8.90;;;2.57;;
9420;SDS011;4749;51.398;5.466;2023-02-27T05:17:17;3.63;;;2.33;;
9420;SDS011;4749;51.398;5.466;2023-02-27T05:20:00;3.00;;;2.27;;
9420;SDS011;4749;51.398;5.466;2023-02-27T05:25:19;5.47;;;2.93;;
9420;SDS011;4749;51.398;5.466;2023-02-27T05:28:06;4.37;;;2.63;;
9420;SDS011;4749;51.398;5.466;2023-02-27T05:33:41;5.83;;;3.00;;
9420;SDS011;4749;51.398;5.466;2023-02-27T05:36:21;3.67;;;2.57;;
9420;SDS011;4749;51.398;5.466;2023-02-27T05:39:12;3.50;;;2.67;;
9420;SDS011;4749;51.398;5.466;2023-02-27T05:41:49;3.70;;;2.50;;
9420;SDS011;4749;51.398;5.466;2023-02-27T05:44:28;5.07;;;2.73;;
9420;SDS011;4749;51.398;5.466;2023-02-27T05:47:04;4.13;;;2.30;;
9420;SDS011;4749;51.398;5.466;2023-02-27T05:52:15;5.83;;;2.87;;
9420;SDS011;4749;51.398;5.466;2023-02-27T05:54:52;5.50;;;2.80;;
9420;SDS011;4749;51.398;5.466;2023-02-27T05:57:57;4.73;;;2.63;;
9420;SDS011;4749;51.398;5.466;2023-02-27T06:03:19;5.30;;;3.03;;
9420;SDS011;4749;51.398;5.466;2023-02-27T06:05:47;5.67;;;2.37;;
9420;SDS011;4749;51.398;5.466;2023-02-27T06:08:19;3.50;;;3.00;;
9420;SDS011;4749;51.398;5.466;2023-02-27T06:10:47;4.57;;;2.60;;
9420;SDS011;4749;51.398;5.466;2023-02-27T06:13:17;4.60;;;3.03;;
9420;SDS011;4749;51.398;5.466;2023-02-27T06:15:45;3.63;;;2.63;;
9420;SDS011;4749;51.398;5.466;2023-02-27T06:18:13;4.20;;;2.73;;
9420;SDS011;4749;51.398;5.466;2023-02-27T06:20:43;5.83;;;3.20;;
9420;SDS011;4749;51.398;5.466;2023-02-27T06:23:12;6.13;;;3.07;;
9420;SDS011;4749;51.398;5.466;2023-02-27T06:25:40;3.67;;;2.80;;
9420;SDS011;4749;51.398;5.466;2023-02-27T06:28:07;5.33;;;2.87;;
9420;SDS011;4749;51.398;5.466;2023-02-27T06:30:36;4.73;;;2.73;;
9420;SDS011;4749;51.398;5.466;2023-02-27T06:33:04;9.43;;;3.03;;
9420;SDS011;4749;51.398;5.466;2023-02-27T06:35:31;7.23;;;3.27;;
9420;SDS011;4749;51.398;5.466;2023-02-27T06:37:59;6.23;;;2.90;;
9420;SDS011;4749;51.398;5.466;2023-02-27T06:40:27;5.03;;;2.80;;
9420;SDS011;4749;51.398;5.466;2023-02-27T06:42:54;8.50;;;3.10;;
9420;SDS011;4749;51.398;5.466;2023-02-27T06:45:22;5.87;;;3.00;;
9420;SDS011;4749;51.398;5.466;2023-02-27T06:47:49;6.73;;;3.10;;
9420;SDS011;4749;51.398;5.466;2023-02-27T06:50:17;7.87;;;3.20;;
9420;SDS011;4749;51.398;5.466;2023-02-27T06:52:45;6.30;;;2.67;;
9420;SDS011;4749;51.398;5.466;2023-02-27T06:55:12;7.33;;;3.40;;
9420;SDS011;4749;51.398;5.466;2023-02-27T06:57:46;8.80;;;3.47;;
9420;SDS011;4749;51.398;5.466;2023-02-27T07:00:13;5.93;;;3.60;;
9420;SDS011;4749;51.398;5.466;2023-02-27T07:02:42;5.70;;;3.10;;
9420;SDS011;4749;51.398;5.466;2023-02-27T07:05:10;5.20;;;3.20;;
9420;SDS011;4749;51.398;5.466;2023-02-27T07:07:37;7.97;;;3.23;;
9420;SDS011;4749;51.398;5.466;2023-02-27T07:10:10;7.27;;;3.07;;
9420;SDS011;4749;51.398;5.466;2023-02-27T07:12:42;4.90;;;3.30;;
9420;SDS011;4749;51.398;5.466;2023-02-27T07:15:15;6.17;;;2.80;;
9420;SDS011;4749;51.398;5.466;2023-02-27T07:17:55;6.90;;;3.57;;
9420;SDS011;4749;51.398;5.466;2023-02-27T07:20:22;5.27;;;3.00;;
9420;SDS011;4749;51.398;5.466;2023-02-27T07:22:51;5.60;;;3.10;;
9420;SDS011;4749;51.398;5.466;2023-02-27T07:25:26;4.17;;;2.67;;
9420;SDS011;4749;51.398;5.466;2023-02-27T07:28:13;7.33;;;3.23;;
9420;SDS011;4749;51.398;5.466;2023-02-27T07:31:36;6.90;;;2.90;;
9420;SDS011;4749;51.398;5.466;2023-02-27T07:34:09;7.40;;;3.10;;
9420;SDS011;4749;51.398;5.466;2023-02-27T07:36:57;4.17;;;3.20;;
9420;SDS011;4749;51.398;5.466;2023-02-27T07:39:25;6.73;;;3.20;;
9420;SDS011;4749;51.398;5.466;2023-02-27T07:41:56;9.47;;;3.70;;
9420;SDS011;4749;51.398;5.466;2023-02-27T07:44:23;6.40;;;2.87;;
9420;SDS011;4749;51.398;5.466;2023-02-27T07:46:54;4.73;;;3.00;;
9420;SDS011;4749;51.398;5.466;2023-02-27T07:49:21;6.07;;;3.40;;
9420;SDS011;4749;51.398;5.466;2023-02-27T07:51:49;6.63;;;3.43;;
9420;SDS011;4749;51.398;5.466;2023-02-27T07:54:16;7.63;;;3.50;;
9420;SDS011;4749;51.398;5.466;2023-02-27T07:56:44;5.47;;;3.10;;
9420;SDS011;4749;51.398;5.466;2023-02-27T07:59:11;6.70;;;3.50;;
9420;SDS011;4749;51.398;5.466;2023-02-27T08:01:38;5.90;;;3.23;;
9420;SDS011;4749;51.398;5.466;2023-02-27T08:04:06;4.37;;;2.73;;
9420;SDS011;4749;51.398;5.466;2023-02-27T08:06:33;5.87;;;3.17;;
9420;SDS011;4749;51.398;5.466;2023-02-27T08:09:00;5.33;;;2.97;;
9420;SDS011;4749;51.398;5.466;2023-02-27T08:11:28;5.40;;;3.27;;
9420;SDS011;4749;51.398;5.466;2023-02-27T08:13:55;7.37;;;3.40;;
9420;SDS011;4749;51.398;5.466;2023-02-27T08:16:26;7.83;;;3.60;;
9420;SDS011;4749;51.398;5.466;2023-02-27T08:18:55;6.77;;;3.30;;
9420;SDS011;4749;51.398;5.466;2023-02-27T08:21:23;4.63;;;3.07;;
9420;SDS011;4749;51.398;5.466;2023-02-27T08:23:52;5.57;;;2.87;;
9420;SDS011;4749;51.398;5.466;2023-02-27T08:26:22;5.33;;;2.50;;
9420;SDS011;4749;51.398;5.466;2023-02-27T08:28:50;7.47;;;3.53;;
9420;SDS011;4749;51.398;5.466;2023-02-27T08:31:29;6.20;;;2.80;;
9420;SDS011;4749;51.398;5.466;2023-02-27T08:34:00;4.97;;;3.03;;
9420;SDS011;4749;51.398;5.466;2023-02-27T08:36:56;5.43;;;2.97;;
9420;SDS011;4749;51.398;5.466;2023-02-27T08:39:23;8.40;;;2.77;;
9420;SDS011;4749;51.398;5.466;2023-02-27T08:47:42;6.20;;;2.77;;
9420;SDS011;4749;51.398;5.466;2023-02-27T08:52:11;3.10;;;2.20;;
9420;SDS011;4749;51.398;5.466;2023-02-27T09:00:34;5.77;;;2.30;;
9420;SDS011;4749;51.398;5.466;2023-02-27T09:09:32;4.90;;;2.23;;
9420;SDS011;4749;51.398;5.466;2023-02-27T09:12:48;3.70;;;2.10;;
9420;SDS011;4749;51.398;5.466;2023-02-27T09:16:19;3.33;;;2.00;;
9420;SDS011;4749;51.398;5.466;2023-02-27T09:19:27;8.73;;;3.90;;
9420;SDS011;4749;51.398;5.466;2023-02-27T09:21:54;4.20;;;2.33;;
9420;SDS011;4749;51.398;5.466;2023-02-27T09:24:22;5.97;;;2.70;;
9420;SDS011;4749;51.398;5.466;2023-02-27T09:26:49;4.13;;;2.20;;
9420;SDS011;4749;51.398;5.466;2023-02-27T09:29:17;3.13;;;2.07;;
9420;SDS011;4749;51.398;5.466;2023-02-27T09:31:44;5.33;;;2.00;;
9420;SDS011;4749;51.398;5.466;2023-02-27T09:34:12;3.10;;;1.83;;
9420;SDS011;4749;51.398;5.466;2023-02-27T09:36:41;4.50;;;2.63;;
9420;SDS011;4749;51.398;5.466;2023-02-27T09:39:08;6.20;;;2.33;;
9420;SDS011;4749;51.398;5.466;2023-02-27T09:41:46;5.07;;;2.47;;
9420;SDS011;4749;51.398;5.466;2023-02-27T09:44:32;3.10;;;1.83;;
9420;SDS011;4749;51.398;5.466;2023-02-27T09:47:20;2.63;;;1.90;;
9420;SDS011;4749;51.398;5.466;2023-02-27T09:50:24;2.50;;;1.53;;
9420;SDS011;4749;51.398;5.466;2023-02-27T09:53:11;4.73;;;1.93;;
9420;SDS011;4749;51.398;5.466;2023-02-27T09:55:47;4.60;;;1.80;;
9420;SDS011;4749;51.398;5.466;2023-02-27T10:06:41;4.60;;;1.83;;
9420;SDS011;4749;51.398;5.466;2023-02-27T10:12:27;4.03;;;1.20;;
9420;SDS011;4749;51.398;5.466;2023-02-27T10:15:09;2.40;;;1.60;;
9420;SDS011;4749;51.398;5.466;2023-02-27T10:18:09;3.83;;;1.53;;
9420;SDS011;4749;51.398;5.466;2023-02-27T10:21:05;3.73;;;1.10;;
9420;SDS011;4749;51.398;5.466;2023-02-27T10:26:19;4.13;;;1.67;;
9420;SDS011;4749;51.398;5.466;2023-02-27T10:28:52;1.77;;;1.17;;
9420;SDS011;4749;51.398;5.466;2023-02-27T10:31:20;2.20;;;1.00;;
9420;SDS011;4749;51.398;5.466;2023-02-27T10:33:57;3.03;;;1.30;;
9420;SDS011;4749;51.398;5.466;2023-02-27T10:36:26;1.90;;;1.27;;
9420;SDS011;4749;51.398;5.466;2023-02-27T10:39:01;2.70;;;1.17;;
9420;SDS011;4749;51.398;5.466;2023-02-27T10:41:34;6.30;;;1.00;;
9420;SDS011;4749;51.398;5.466;2023-02-27T10:44:03;2.73;;;1.20;;
9420;SDS011;4749;51.398;5.466;2023-02-27T10:46:31;3.77;;;1.10;;
9420;SDS011;4749;51.398;5.466;2023-02-27T10:49:14;2.07;;;1.23;;
9420;SDS011;4749;51.398;5.466;2023-02-27T10:51:46;3.57;;;1.10;;
9420;SDS011;4749;51.398;5.466;2023-02-27T10:54:47;1.93;;;1.23;;
9420;SDS011;4749;51.398;5.466;2023-02-27T10:59:49;1.70;;;1.20;;
9420;SDS011;4749;51.398;5.466;2023-02-27T11:02:22;2.10;;;1.40;;
9420;SDS011;4749;51.398;5.466;2023-02-27T11:05:02;3.07;;;1.93;;
9420;SDS011;4749;51.398;5.466;2023-02-27T11:07:34;1.73;;;1.20;;
9420;SDS011;4749;51.398;5.466;2023-02-27T11:12:40;7.73;;;1.63;;
9420;SDS011;4749;51.398;5.466;2023-02-27T11:15:23;3.03;;;1.40;;
9420;SDS011;4749;51.398;5.466;2023-02-27T11:17:54;2.90;;;1.20;;
9420;SDS011;4749;51.398;5.466;2023-02-27T11:20:44;2.57;;;1.50;;
9420;SDS011;4749;51.398;5.466;2023-02-27T11:23:17;4.10;;;1.40;;
9420;SDS011;4749;51.398;5.466;2023-02-27T11:25:50;5.23;;;1.67;;
9420;SDS011;4749;51.398;5.466;2023-02-27T11:28:42;2.77;;;1.17;;
9420;SDS011;4749;51.398;5.466;2023-02-27T11:31:19;2.20;;;1.20;;
9420;SDS011;4749;51.398;5.466;2023-02-27T11:33:52;4.57;;;1.00;;
9420;SDS011;4749;51.398;5.466;2023-02-27T11:39:46;2.73;;;1.30;;
9420;SDS011;4749;51.398;5.466;2023-02-27T11:42:22;1.87;;;1.10;;
9420;SDS011;4749;51.398;5.466;2023-02-27T11:45:00;3.37;;;1.30;;
9420;SDS011;4749;51.398;5.466;2023-02-27T11:47:35;3.50;;;1.20;;
9420;SDS011;4749;51.398;5.466;2023-02-27T11:50:22;2.00;;;1.20;;
9420;SDS011;4749;51.398;5.466;2023-02-27T11:53:21;2.70;;;1.23;;
9420;SDS011;4749;51.398;5.466;2023-02-27T11:56:09;2.17;;;1.00;;
9420;SDS011;4749;51.398;5.466;2023-02-27T12:04:40;2.20;;;0.90;;
9420;SDS011;4749;51.398;5.466;2023-02-27T12:07:32;3.87;;;1.20;;
9420;SDS011;4749;51.398;5.466;2023-02-27T12:13:40;2.67;;;1.00;;
9420;SDS011;4749;51.398;5.466;2023-02-27T12:16:16;4.10;;;1.13;;
9420;SDS011;4749;51.398;5.466;2023-02-27T12:36:34;2.97;;;1.10;;
9420;SDS011;4749;51.398;5.466;2023-02-27T12:39:01;2.60;;;1.27;;
9420;SDS011;4749;51.398;5.466;2023-02-27T12:47:18;4.53;;;1.00;;
9420;SDS011;4749;51.398;5.466;2023-02-27T12:50:04;3.33;;;1.30;;
9420;SDS011;4749;51.398;5.466;2023-02-27T12:55:27;2.20;;;1.33;;
9420;SDS011;4749;51.398;5.466;2023-02-27T12:58:29;2.80;;;1.00;;
9420;SDS011;4749;51.398;5.466;2023-02-27T13:04:46;1.40;;;1.07;;
9420;SDS011;4749;51.398;5.466;2023-02-27T13:07:40;3.53;;;1.33;;
9420;SDS011;4749;51.398;5.466;2023-02-27T13:10:33;2.77;;;1.10;;
9420;SDS011;4749;51.398;5.466;2023-02-27T13:13:19;2.13;;;1.20;;
9420;SDS011;4749;51.398;5.466;2023-02-27T13:22:10;6.93;;;1.63;;
9420;SDS011;4749;51.398;5.466;2023-02-27T13:25:24;4.07;;;1.37;;
9420;SDS011;4749;51.398;5.466;2023-02-27T13:27:56;3.23;;;1.27;;
9420;SDS011;4749;51.398;5.466;2023-02-27T13:30:39;4.33;;;1.47;;
9420;SDS011;4749;51.398;5.466;2023-02-27T13:39:35;4.03;;;1.47;;
9420;SDS011;4749;51.398;5.466;2023-02-27T13:44:54;2.90;;;1.20;;
9420;SDS011;4749;51.398;5.466;2023-02-27T13:47:41;3.20;;;1.33;;
9420;SDS011;4749;51.398;5.466;2023-02-27T13:52:47;3.07;;;1.30;;
9420;SDS011;4749;51.398;5.466;2023-02-27T13:55:49;3.43;;;1.40;;
9420;SDS011;4749;51.398;5.466;2023-02-27T13:58:14;2.97;;;1.20;;
9420;SDS011;4749;51.398;5.466;2023-02-27T14:00:52;1.33;;;0.87;;
9420;SDS011;4749;51.398;5.466;2023-02-27T14:03:24;2.47;;;1.03;;
9420;SDS011;4749;51.398;5.466;2023-02-27T14:05:56;2.63;;;1.30;;
9420;SDS011;4749;51.398;5.466;2023-02-27T14:08:28;2.00;;;0.90;;
9420;SDS011;4749;51.398;5.466;2023-02-27T14:24:55;2.27;;;1.00;;
9420;SDS011;4749;51.398;5.466;2023-02-27T14:30:31;2.30;;;1.07;;
9420;SDS011;4749;51.398;5.466;2023-02-27T14:33:10;2.60;;;1.03;;
9420;SDS011;4749;51.398;5.466;2023-02-27T14:36:08;2.20;;;1.00;;
9420;SDS011;4749;51.398;5.466;2023-02-27T14:38:48;2.93;;;1.23;;
9420;SDS011;4749;51.398;5.466;2023-02-27T14:44:21;2.73;;;1.10;;
9420;SDS011;4749;51.398;5.466;2023-02-27T14:46:55;1.37;;;1.00;;
9420;SDS011;4749;51.398;5.466;2023-02-27T14:49:24;1.73;;;1.20;;
9420;SDS011;4749;51.398;5.466;2023-02-27T14:54:48;3.83;;;1.10;;
9420;SDS011;4749;51.398;5.466;2023-02-27T14:57:19;3.53;;;1.10;;
9420;SDS011;4749;51.398;5.466;2023-02-27T14:59:53;2.93;;;1.23;;
9420;SDS011;4749;51.398;5.466;2023-02-27T15:02:25;1.90;;;1.10;;
9420;SDS011;4749;51.398;5.466;2023-02-27T15:07:29;1.73;;;0.90;;
9420;SDS011;4749;51.398;5.466;2023-02-27T15:10:00;1.83;;;1.10;;
9420;SDS011;4749;51.398;5.466;2023-02-27T15:12:33;3.83;;;1.20;;
9420;SDS011;4749;51.398;5.466;2023-02-27T15:15:05;3.60;;;1.07;;
9420;SDS011;4749;51.398;5.466;2023-02-27T15:17:37;1.43;;;1.03;;
9420;SDS011;4749;51.398;5.466;2023-02-27T15:20:22;1.40;;;0.90;;
9420;SDS011;4749;51.398;5.466;2023-02-27T15:23:01;2.23;;;1.20;;
9420;SDS011;4749;51.398;5.466;2023-02-27T15:25:48;4.80;;;1.10;;
9420;SDS011;4749;51.398;5.466;2023-02-27T15:28:26;3.80;;;1.00;;
9420;SDS011;4749;51.398;5.466;2023-02-27T15:31:02;1.53;;;1.03;;
9420;SDS011;4749;51.398;5.466;2023-02-27T15:33:31;2.20;;;0.90;;
9420;SDS011;4749;51.398;5.466;2023-02-27T15:36:00;2.87;;;1.10;;
9420;SDS011;4749;51.398;5.466;2023-02-27T15:38:31;1.67;;;0.97;;
9420;SDS011;4749;51.398;5.466;2023-02-27T15:41:01;2.03;;;0.93;;
9420;SDS011;4749;51.398;5.466;2023-02-27T15:43:30;2.10;;;1.13;;
9420;SDS011;4749;51.398;5.466;2023-02-27T15:45:58;1.50;;;1.00;;
9420;SDS011;4749;51.398;5.466;2023-02-27T15:48:26;2.13;;;1.10;;
9420;SDS011;4749;51.398;5.466;2023-02-27T15:50:57;2.97;;;1.73;;
9420;SDS011;4749;51.398;5.466;2023-02-27T15:53:28;1.80;;;1.00;;
9420;SDS011;4749;51.398;5.466;2023-02-27T15:56:02;2.10;;;1.00;;
9420;SDS011;4749;51.398;5.466;2023-02-27T15:58:36;1.40;;;1.10;;
9420;SDS011;4749;51.398;5.466;2023-02-27T16:01:27;2.30;;;1.00;;
9420;SDS011;4749;51.398;5.466;2023-02-27T16:04:01;2.60;;;1.03;;
9420;SDS011;4749;51.398;5.466;2023-02-27T16:06:36;4.13;;;1.10;;
9420;SDS011;4749;51.398;5.466;2023-02-27T16:09:07;1.90;;;1.23;;
9420;SDS011;4749;51.398;5.466;2023-02-27T16:20:37;2.57;;;1.00;;
9420;SDS011;4749;51.398;5.466;2023-02-27T16:26:01;2.23;;;1.20;;
9420;SDS011;4749;51.398;5.466;2023-02-27T16:28:30;3.07;;;1.33;;
9420;SDS011;4749;51.398;5.466;2023-02-27T16:31:00;2.47;;;1.17;;
9420;SDS011;4749;51.398;5.466;2023-02-27T16:33:29;3.50;;;1.10;;
9420;SDS011;4749;51.398;5.466;2023-02-27T16:36:11;3.90;;;1.40;;
9420;SDS011;4749;51.398;5.466;2023-02-27T16:38:48;2.03;;;1.00;;
9420;SDS011;4749;51.398;5.466;2023-02-27T16:41:17;1.47;;;1.10;;
9420;SDS011;4749;51.398;5.466;2023-02-27T16:43:47;3.43;;;1.20;;
9420;SDS011;4749;51.398;5.466;2023-02-27T16:46:16;2.23;;;1.30;;
9420;SDS011;4749;51.398;5.466;2023-02-27T16:48:48;2.93;;;1.33;;
9420;SDS011;4749;51.398;5.466;2023-02-27T16:51:21;2.33;;;1.20;;
9420;SDS011;4749;51.398;5.466;2023-02-27T16:53:51;2.20;;;1.23;;
9420;SDS011;4749;51.398;5.466;2023-02-27T16:56:20;2.27;;;1.20;;
9420;SDS011;4749;51.398;5.466;2023-02-27T16:59:03;2.00;;;1.30;;
9420;SDS011;4749;51.398;5.466;2023-02-27T17:01:31;3.23;;;1.30;;
9420;SDS011;4749;51.398;5.466;2023-02-27T17:03:59;3.73;;;1.60;;
9420;SDS011;4749;51.398;5.466;2023-02-27T17:06:27;2.93;;;1.40;;
9420;SDS011;4749;51.398;5.466;2023-02-27T17:08:55;6.43;;;1.50;;
9420;SDS011;4749;51.398;5.466;2023-02-27T17:11:23;2.00;;;1.30;;
9420;SDS011;4749;51.398;5.466;2023-02-27T17:13:50;2.30;;;1.40;;
9420;SDS011;4749;51.398;5.466;2023-02-27T17:16:17;3.73;;;1.57;;
9420;SDS011;4749;51.398;5.466;2023-02-27T17:18:44;4.47;;;1.63;;
9420;SDS011;4749;51.398;5.466;2023-02-27T17:21:12;5.20;;;1.50;;
9420;SDS011;4749;51.398;5.466;2023-02-27T17:23:40;2.87;;;1.73;;
9420;SDS011;4749;51.398;5.466;2023-02-27T17:26:07;2.63;;;1.67;;
9420;SDS011;4749;51.398;5.466;2023-02-27T17:28:34;5.53;;;2.20;;
9420;SDS011;4749;51.398;5.466;2023-02-27T17:31:06;3.97;;;2.00;;
9420;SDS011;4749;51.398;5.466;2023-02-27T17:33:34;4.20;;;1.80;;
9420;SDS011;4749;51.398;5.466;2023-02-27T17:36:02;4.40;;;1.70;;
9420;SDS011;4749;51.398;5.466;2023-02-27T17:38:32;4.53;;;2.03;;
9420;SDS011;4749;51.398;5.466;2023-02-27T17:41:04;4.20;;;1.73;;
9420;SDS011;4749;51.398;5.466;2023-02-27T17:43:33;3.30;;;1.90;;
9420;SDS011;4749;51.398;5.466;2023-02-27T17:46:04;2.77;;;2.00;;
9420;SDS011;4749;51.398;5.466;2023-02-27T17:48:32;4.27;;;1.83;;
9420;SDS011;4749;51.398;5.466;2023-02-27T17:51:04;3.50;;;1.77;;
9420;SDS011;4749;51.398;5.466;2023-02-27T17:53:35;5.37;;;2.00;;
9420;SDS011;4749;51.398;5.466;2023-02-27T17:56:04;4.63;;;1.73;;
9420;SDS011;4749;51.398;5.466;2023-02-27T17:58:32;3.83;;;1.63;;
9420;SDS011;4749;51.398;5.466;2023-02-27T18:01:04;3.17;;;2.00;;
9420;SDS011;4749;51.398;5.466;2023-02-27T18:03:37;4.77;;;2.10;;
9420;SDS011;4749;51.398;5.466;2023-02-27T18:06:05;3.47;;;1.83;;
9420;SDS011;4749;51.398;5.466;2023-02-27T18:08:33;7.87;;;2.10;;
9420;SDS011;4749;51.398;5.466;2023-02-27T18:11:03;4.47;;;1.80;;
9420;SDS011;4749;51.398;5.466;2023-02-27T18:13:36;5.87;;;2.00;;
9420;SDS011;4749;51.398;5.466;2023-02-27T18:16:04;3.20;;;1.80;;
9420;SDS011;4749;51.398;5.466;2023-02-27T18:18:33;5.57;;;1.83;;
9420;SDS011;4749;51.398;5.466;2023-02-27T18:21:05;3.80;;;1.73;;
9420;SDS011;4749;51.398;5.466;2023-02-27T18:23:47;5.40;;;2.47;;
9420;SDS011;4749;51.398;5.466;2023-02-27T18:26:18;3.83;;;2.07;;
9420;SDS011;4749;51.398;5.466;2023-02-27T18:28:57;3.30;;;1.80;;
9420;SDS011;4749;51.398;5.466;2023-02-27T18:31:32;5.00;;;1.80;;
9420;SDS011;4749;51.398;5.466;2023-02-27T18:34:06;5.20;;;1.70;;
9420;SDS011;4749;51.398;5.466;2023-02-27T18:36:34;4.83;;;2.20;;
9420;SDS011;4749;51.398;5.466;2023-02-27T18:39:03;6.10;;;2.20;;
9420;SDS011;4749;51.398;5.466;2023-02-27T18:41:32;4.87;;;2.13;;
9420;SDS011;4749;51.398;5.466;2023-02-27T18:44:04;3.00;;;1.97;;
9420;SDS011;4749;51.398;5.466;2023-02-27T18:46:35;2.87;;;1.97;;
9420;SDS011;4749;51.398;5.466;2023-02-27T18:49:15;3.70;;;2.00;;
9420;SDS011;4749;51.398;5.466;2023-02-27T18:51:52;4.73;;;1.80;;
9420;SDS011;4749;51.398;5.466;2023-02-27T18:54:22;4.33;;;2.60;;
9420;SDS011;4749;51.398;5.466;2023-02-27T18:56:50;6.83;;;2.50;;
9420;SDS011;4749;51.398;5.466;2023-02-27T18:59:29;4.23;;;2.63;;
9420;SDS011;4749;51.398;5.466;2023-02-27T19:02:02;8.10;;;2.70;;
9420;SDS011;4749;51.398;5.466;2023-02-27T19:05:12;5.90;;;2.70;;
9420;SDS011;4749;51.398;5.466;2023-02-27T19:08:35;5.50;;;3.03;;
9420;SDS011;4749;51.398;5.466;2023-02-27T19:12:18;5.70;;;2.40;;
9420;SDS011;4749;51.398;5.466;2023-02-27T19:15:32;5.63;;;3.00;;
9420;SDS011;4749;51.398;5.466;2023-02-27T19:19:31;6.43;;;2.80;;
9420;SDS011;4749;51.398;5.466;2023-02-27T19:22:27;4.90;;;2.60;;
9420;SDS011;4749;51.398;5.466;2023-02-27T19:25:03;5.03;;;2.60;;
9420;SDS011;4749;51.398;5.466;2023-02-27T19:28:50;3.47;;;1.90;;
9420;SDS011;4749;51.398;5.466;2023-02-27T19:31:35;3.23;;;2.07;;
9420;SDS011;4749;51.398;5.466;2023-02-27T19:34:22;5.37;;;2.43;;
9420;SDS011;4749;51.398;5.466;2023-02-27T19:40:38;5.20;;;2.63;;
9420;SDS011;4749;51.398;5.466;2023-02-27T19:43:50;3.47;;;2.30;;
9420;SDS011;4749;51.398;5.466;2023-02-27T19:46:35;4.53;;;2.40;;